createdAt,value
2018-12-07T09:23:49.355Z,991.41
2018-12-07T09:25:36.202Z,991.40
2018-12-07T09:26:36.218Z,991.38
2018-12-07T09:28:29.193Z,991.43
2018-12-07T09:29:29.177Z,991.46
2018-12-07T09:31:23.616Z,991.40
2018-12-07T09:32:23.654Z,991.42
2018-12-07T09:33:23.681Z,991.40
2018-12-07T09:34:23.715Z,991.37
2018-12-07T09:35:23.754Z,991.39
2018-12-07T09:36:23.787Z,991.34
2018-12-07T09:37:23.830Z,991.35
2018-12-07T09:38:23.860Z,991.32
2018-12-07T09:39:23.894Z,991.30
2018-12-07T09:40:23.944Z,991.34
2018-12-07T09:41:23.968Z,991.36
2018-12-07T09:42:24.004Z,991.36
2018-12-07T09:43:24.041Z,991.35
2018-12-07T09:44:24.075Z,991.37
2018-12-07T09:45:24.112Z,991.39
2018-12-07T09:46:24.148Z,991.42
2018-12-07T09:47:24.192Z,991.38
2018-12-07T09:48:24.227Z,991.47
2018-12-07T09:49:24.256Z,991.42
2018-12-07T09:50:24.292Z,991.45
2018-12-07T09:51:24.334Z,991.44
2018-12-07T09:52:24.368Z,991.47
2018-12-07T09:53:24.403Z,991.44
2018-12-07T09:54:24.440Z,991.38
2018-12-07T09:55:24.476Z,991.40
2018-12-07T09:56:24.510Z,991.39
2018-12-07T09:57:24.564Z,991.33
2018-12-07T09:58:24.583Z,991.33
2018-12-07T09:59:24.623Z,991.31
2018-12-07T10:00:24.665Z,991.27
2018-12-07T10:01:24.699Z,991.25
2018-12-07T10:02:24.735Z,991.19
2018-12-07T10:03:24.768Z,991.20
2018-12-07T10:04:24.804Z,991.16
2018-12-07T10:05:24.849Z,991.17
2018-12-07T10:06:24.881Z,991.10
2018-12-07T10:07:24.919Z,991.08
2018-12-07T10:08:24.948Z,991.06
2018-12-07T10:09:24.987Z,991.06
2018-12-07T10:10:25.021Z,991.10
2018-12-07T10:11:25.146Z,991.09
2018-12-07T10:12:25.094Z,991.04
2018-12-07T10:13:25.139Z,991.01
2018-12-07T10:14:25.228Z,991.00
2018-12-07T10:15:25.206Z,991.00
2018-12-07T10:16:25.242Z,990.95
2018-12-07T10:17:25.278Z,990.94
2018-12-07T10:18:25.315Z,990.92
2018-12-07T10:19:25.375Z,990.91
2018-12-07T10:20:25.389Z,990.92
2018-12-07T10:21:25.426Z,990.90
2018-12-07T10:22:25.465Z,990.86
2018-12-07T10:23:25.498Z,990.84
2018-12-07T10:24:25.540Z,990.79
2018-12-07T10:25:25.571Z,990.83
2018-12-07T10:26:25.612Z,990.82
2018-12-07T10:27:25.643Z,990.83
2018-12-07T10:28:25.683Z,990.83
2018-12-07T10:29:25.718Z,990.82
2018-12-07T10:30:25.753Z,990.84
2018-12-07T10:31:25.799Z,990.82
2018-12-07T10:32:25.828Z,990.78
2018-12-07T10:33:25.866Z,990.76
2018-12-07T10:34:25.905Z,990.79
2018-12-07T10:35:25.938Z,990.76
2018-12-07T10:36:25.979Z,990.76
2018-12-07T10:37:26.013Z,990.71
2018-12-07T10:38:26.048Z,990.74
2018-12-07T10:39:26.085Z,990.74
2018-12-07T10:40:26.122Z,990.72
2018-12-07T10:41:26.159Z,990.65
2018-12-07T10:42:26.195Z,990.65
2018-12-07T10:43:26.232Z,990.70
2018-12-07T10:44:27.786Z,990.67
2018-12-07T10:45:26.306Z,990.64
2018-12-07T10:46:26.347Z,990.63
2018-12-07T10:47:26.392Z,990.61
2018-12-07T10:48:26.420Z,990.62
2018-12-07T10:49:26.452Z,990.61
2018-12-07T10:50:26.488Z,990.60
2018-12-07T10:51:26.534Z,990.64
2018-12-07T10:52:26.572Z,990.60
2018-12-07T10:53:26.603Z,990.63
2018-12-07T10:54:26.636Z,990.64
2018-12-07T10:55:26.672Z,990.63
2018-12-07T10:56:26.713Z,990.62
2018-12-07T10:57:26.748Z,990.61
2018-12-07T10:58:26.791Z,990.60
2018-12-07T10:59:26.818Z,990.58
2018-12-07T11:00:26.860Z,990.56
2018-12-07T11:01:26.896Z,990.55
2018-12-07T11:02:26.936Z,990.54
2018-12-07T11:03:26.967Z,990.53
2018-12-07T11:04:27.004Z,990.50
2018-12-07T11:05:27.046Z,990.52
2018-12-07T11:06:27.075Z,990.51
2018-12-07T11:07:27.119Z,990.49
2018-12-07T11:08:27.150Z,990.44
2018-12-07T11:09:27.190Z,990.47
2018-12-07T11:10:27.226Z,990.46
2018-12-07T11:11:27.265Z,990.44
2018-12-07T11:12:27.299Z,990.43
2018-12-07T11:13:27.335Z,990.44
2018-12-07T11:14:27.378Z,990.42
2018-12-07T11:15:27.409Z,990.42
2018-12-07T11:16:27.451Z,990.38
2018-12-07T11:17:27.488Z,990.44
2018-12-07T11:18:27.524Z,990.39
2018-12-07T11:19:27.558Z,990.36
2018-12-07T11:20:27.595Z,990.35
2018-12-07T11:21:27.630Z,990.35
2018-12-07T11:22:27.667Z,990.33
2018-12-07T11:23:27.702Z,990.34
2018-12-07T11:24:27.738Z,990.38
2018-12-07T11:25:27.776Z,990.37
2018-12-07T11:26:27.824Z,990.37
2018-12-07T11:27:27.849Z,990.34
2018-12-07T11:28:27.906Z,990.33
2018-12-07T11:29:27.924Z,990.28
2018-12-07T11:30:27.959Z,990.28
2018-12-07T11:31:28.002Z,990.33
2018-12-07T11:32:28.033Z,990.28
2018-12-07T11:33:28.077Z,990.27
2018-12-07T11:34:28.108Z,990.32
2018-12-07T11:35:28.148Z,990.31
2018-12-07T11:36:28.183Z,990.28
2018-12-07T11:37:28.224Z,990.27
2018-12-07T11:38:28.255Z,990.30
2018-12-07T11:39:28.330Z,990.28
2018-12-07T11:40:28.764Z,990.31
2018-12-07T11:41:28.368Z,990.30
2018-12-07T11:42:28.407Z,990.31
2018-12-07T11:43:28.443Z,990.33
2018-12-07T11:44:28.476Z,990.37
2018-12-07T11:45:28.514Z,990.40
2018-12-07T11:46:28.552Z,990.42
2018-12-07T11:47:28.585Z,990.43
2018-12-07T11:48:28.625Z,990.44
2018-12-07T11:49:28.663Z,990.44
2018-12-07T11:50:28.699Z,990.44
2018-12-07T11:51:28.737Z,990.42
2018-12-07T11:52:28.772Z,990.43
2018-12-07T11:53:28.807Z,990.39
2018-12-07T11:54:28.846Z,990.36
2018-12-07T11:55:28.879Z,990.34
2018-12-07T11:56:28.919Z,990.34
2018-12-07T11:57:28.958Z,990.33
2018-12-07T11:58:28.995Z,990.31
2018-12-07T11:59:29.027Z,990.30
2018-12-07T12:00:29.065Z,990.24
2018-12-07T12:01:30.154Z,990.22
2018-12-07T12:02:29.136Z,990.18
2018-12-07T12:03:29.175Z,990.19
2018-12-07T12:04:29.215Z,990.24
2018-12-07T12:05:29.302Z,990.25
2018-12-07T12:06:29.286Z,990.24
2018-12-07T12:07:29.323Z,990.21
2018-12-07T12:08:29.359Z,990.18
2018-12-07T12:09:29.398Z,990.15
2018-12-07T12:10:29.434Z,990.12
2018-12-07T12:11:29.472Z,990.13
2018-12-07T12:12:29.511Z,990.07
2018-12-07T12:13:29.548Z,990.06
2018-12-07T12:14:29.580Z,990.08
2018-12-07T12:15:29.619Z,990.02
2018-12-07T12:16:29.657Z,989.99
2018-12-07T12:17:29.692Z,989.93
2018-12-07T12:18:29.732Z,989.88
2018-12-07T12:19:29.763Z,989.84
2018-12-07T12:20:29.806Z,989.86
2018-12-07T12:21:29.840Z,989.82
2018-12-07T12:22:29.877Z,989.84
2018-12-07T12:23:29.912Z,989.86
2018-12-07T12:24:29.949Z,989.91
2018-12-07T12:25:29.989Z,989.88
2018-12-07T12:26:30.036Z,989.86
2018-12-07T12:27:30.076Z,989.85
2018-12-07T12:28:30.097Z,989.83
2018-12-07T12:29:30.137Z,989.84
2018-12-07T12:30:30.172Z,989.80
2018-12-07T12:31:30.213Z,989.77
2018-12-07T12:32:30.246Z,989.76
2018-12-07T12:33:30.284Z,989.71
2018-12-07T12:34:30.319Z,989.70
2018-12-07T12:35:30.359Z,989.73
2018-12-07T12:36:30.397Z,989.70
2018-12-07T12:37:30.430Z,989.68
2018-12-07T12:38:30.465Z,989.70
2018-12-07T12:39:30.501Z,989.72
2018-12-07T12:40:30.539Z,989.71
2018-12-07T12:41:30.579Z,989.71
2018-12-07T12:42:30.613Z,989.73
2018-12-07T12:43:30.652Z,989.66
2018-12-07T12:44:30.686Z,989.67
2018-12-07T12:45:30.724Z,989.67
2018-12-07T12:46:30.762Z,989.74
2018-12-07T12:47:30.802Z,989.74
2018-12-07T12:48:30.835Z,989.73
2018-12-07T12:49:30.872Z,989.75
2018-12-07T12:50:30.909Z,989.75
2018-12-07T12:51:30.953Z,989.73
2018-12-07T12:52:30.981Z,989.70
2018-12-07T12:53:31.022Z,989.67
2018-12-07T12:54:31.057Z,989.67
2018-12-07T12:55:31.092Z,989.63
2018-12-07T12:56:31.130Z,989.62
2018-12-07T12:57:31.168Z,989.57
2018-12-07T12:58:31.203Z,989.51
2018-12-07T12:59:31.238Z,989.52
2018-12-07T13:00:31.276Z,989.48
2018-12-07T13:01:31.313Z,989.50
2018-12-07T13:02:31.351Z,989.49
2018-12-07T13:03:31.389Z,989.50
2018-12-07T13:04:31.424Z,989.54
2018-12-07T13:05:31.463Z,989.54
2018-12-07T13:06:31.497Z,989.51
2018-12-07T13:07:31.538Z,989.50
2018-12-07T13:08:31.572Z,989.49
2018-12-07T13:09:31.611Z,989.44
2018-12-07T13:10:31.648Z,989.33
2018-12-07T13:11:31.686Z,989.28
2018-12-07T13:12:31.720Z,989.27
2018-12-07T13:13:31.754Z,989.28
2018-12-07T13:14:31.793Z,989.21
2018-12-07T13:15:31.828Z,989.26
2018-12-07T13:16:31.868Z,989.25
2018-12-07T13:17:31.903Z,989.26
2018-12-07T13:18:33.620Z,989.26
2018-12-07T13:19:31.980Z,989.24
2018-12-07T13:20:32.013Z,989.24
2018-12-07T13:21:32.048Z,989.25
2018-12-07T13:22:32.085Z,989.26
2018-12-07T13:23:32.124Z,989.23
2018-12-07T13:24:32.169Z,989.25
2018-12-07T13:25:32.198Z,989.20
2018-12-07T13:26:32.233Z,989.22
2018-12-07T13:27:32.274Z,989.15
2018-12-07T13:28:32.309Z,989.21
2018-12-07T13:29:32.345Z,989.23
2018-12-07T13:30:32.382Z,989.21
2018-12-07T13:31:32.421Z,989.25
2018-12-07T13:32:32.454Z,989.26
2018-12-07T13:33:32.495Z,989.24
2018-12-07T13:34:32.529Z,989.20
2018-12-07T13:35:32.565Z,989.25
2018-12-07T13:36:32.603Z,989.24
2018-12-07T13:37:32.639Z,989.22
2018-12-07T13:38:32.678Z,989.20
2018-12-07T13:39:32.739Z,989.15
2018-12-07T13:40:32.752Z,989.18
2018-12-07T13:41:33.024Z,989.14
2018-12-07T13:42:32.831Z,989.15
2018-12-07T13:43:32.876Z,989.14
2018-12-07T13:44:32.985Z,989.10
2018-12-07T13:45:33.113Z,989.07
2018-12-07T13:46:33.108Z,989.04
2018-12-07T13:47:33.341Z,989.03
2018-12-07T13:48:33.154Z,989.02
2018-12-07T13:49:33.429Z,989.03
2018-12-07T13:50:33.119Z,989.03
2018-12-07T13:51:33.308Z,989.05
2018-12-07T13:52:33.264Z,989.01
2018-12-07T13:53:33.289Z,989.01
2018-12-07T13:54:33.361Z,988.98
2018-12-07T13:55:33.447Z,988.95
2018-12-07T13:56:33.445Z,988.97
2018-12-07T13:57:33.469Z,988.95
2018-12-07T13:58:33.614Z,988.98
2018-12-07T13:59:33.472Z,988.99
2018-12-07T14:00:33.598Z,988.98
2018-12-07T14:01:33.643Z,988.98
2018-12-07T14:02:33.561Z,988.95
2018-12-07T14:03:33.668Z,988.89
2018-12-07T14:04:33.803Z,988.93
2018-12-07T14:05:33.813Z,988.93
2018-12-07T14:06:33.717Z,988.89
2018-12-07T14:07:33.788Z,988.94
2018-12-07T14:08:33.924Z,988.90
2018-12-07T14:09:33.843Z,988.87
2018-12-07T14:10:33.978Z,988.87
2018-12-07T14:11:34.051Z,988.84
2018-12-07T14:12:33.952Z,988.83
2018-12-07T14:13:33.991Z,988.83
2018-12-07T14:14:34.211Z,988.89
2018-12-07T14:15:34.261Z,988.94
2018-12-07T14:16:34.143Z,988.92
2018-12-07T14:17:34.157Z,988.95
2018-12-07T14:18:34.207Z,988.96
2018-12-07T14:19:34.240Z,988.97
2018-12-07T14:20:34.369Z,988.91
2018-12-07T14:21:34.312Z,988.94
2018-12-07T14:22:34.458Z,988.86
2018-12-07T14:23:35.842Z,988.86
2018-12-07T14:24:34.504Z,988.84
2018-12-07T14:25:34.433Z,988.84
2018-12-07T14:26:34.441Z,988.84
2018-12-07T14:27:34.495Z,988.79
2018-12-07T14:28:34.697Z,988.78
2018-12-07T14:29:34.582Z,988.78
2018-12-07T14:30:35.986Z,988.76
2018-12-07T14:31:34.801Z,988.80
2018-12-07T14:32:34.657Z,988.80
2018-12-07T14:33:34.743Z,988.78
2018-12-07T14:34:34.740Z,988.76
2018-12-07T14:35:34.941Z,988.69
2018-12-07T14:36:34.973Z,988.69
2018-12-07T14:37:34.841Z,988.66
2018-12-07T14:38:34.875Z,988.63
2018-12-07T14:39:34.954Z,988.60
2018-12-07T14:40:34.993Z,988.58
2018-12-07T14:41:35.135Z,988.57
2018-12-07T14:42:35.192Z,988.54
2018-12-07T14:43:35.224Z,988.57
2018-12-07T14:44:35.227Z,988.50
2018-12-07T14:45:35.410Z,988.48
2018-12-07T14:46:35.355Z,988.46
2018-12-07T14:47:35.271Z,988.49
2018-12-07T14:48:35.243Z,988.42
2018-12-07T14:49:35.331Z,988.41
2018-12-07T14:50:35.355Z,988.46
2018-12-07T14:51:35.411Z,988.45
2018-12-07T14:52:35.398Z,988.41
2018-12-07T14:53:35.551Z,988.44
2018-12-07T14:54:35.465Z,988.41
2018-12-07T14:55:35.583Z,988.40
2018-12-07T14:56:35.657Z,988.41
2018-12-07T14:57:35.773Z,988.38
2018-12-07T14:58:35.619Z,988.38
2018-12-07T14:59:35.667Z,988.38
2018-12-07T15:00:35.689Z,988.40
2018-12-07T15:01:35.837Z,988.37
2018-12-07T15:02:36.001Z,988.42
2018-12-07T15:03:35.962Z,988.39
2018-12-07T15:04:35.833Z,988.37
2018-12-07T15:05:35.924Z,988.38
2018-12-07T15:06:35.930Z,988.38
2018-12-07T15:07:35.937Z,988.39
2018-12-07T15:08:36.125Z,988.37
2018-12-07T15:09:36.131Z,988.38
2018-12-07T15:10:36.090Z,988.34
2018-12-07T15:11:36.117Z,988.33
2018-12-07T15:12:36.174Z,988.30
2018-12-07T15:13:36.217Z,988.29
2018-12-07T15:14:36.214Z,988.27
2018-12-07T15:15:36.246Z,988.21
2018-12-07T15:16:36.272Z,988.13
2018-12-07T15:17:36.453Z,988.13
2018-12-07T15:18:36.376Z,988.11
2018-12-07T15:19:36.378Z,988.05
2018-12-07T15:20:36.436Z,988.06
2018-12-07T15:21:36.459Z,988.08
2018-12-07T15:22:36.613Z,988.03
2018-12-07T15:23:36.582Z,988.09
2018-12-07T15:24:36.561Z,988.05
2018-12-07T15:25:36.729Z,988.07
2018-12-07T15:26:36.825Z,988.13
2018-12-07T15:27:36.668Z,988.11
2018-12-07T15:28:36.947Z,988.10
2018-12-07T15:29:36.965Z,988.09
2018-12-07T15:30:36.813Z,988.05
2018-12-07T15:31:36.928Z,988.06
2018-12-07T15:32:36.937Z,988.05
2018-12-07T15:33:36.890Z,988.05
2018-12-07T15:34:36.968Z,987.99
2018-12-07T15:35:36.980Z,987.99
2018-12-07T15:36:37.061Z,987.96
2018-12-07T15:37:37.046Z,987.91
2018-12-07T15:38:37.250Z,987.86
2018-12-07T15:39:37.138Z,987.82
2018-12-07T15:40:37.206Z,987.81
2018-12-07T15:41:37.176Z,987.78
2018-12-07T15:42:37.237Z,987.78
2018-12-07T15:43:37.296Z,987.79
2018-12-07T15:44:37.502Z,987.83
2018-12-07T15:45:37.324Z,987.85
2018-12-07T15:46:37.377Z,987.85
2018-12-07T15:47:37.413Z,987.83
2018-12-07T15:48:37.453Z,987.77
2018-12-07T15:49:37.489Z,987.78
2018-12-07T15:50:37.504Z,987.73
2018-12-07T15:51:37.579Z,987.73
2018-12-07T15:52:37.791Z,987.73
2018-12-07T15:53:37.714Z,987.76
2018-12-07T15:54:37.749Z,987.72
2018-12-07T15:55:37.748Z,987.75
2018-12-07T15:56:37.939Z,987.74
2018-12-07T15:57:37.968Z,987.75
2018-12-07T15:58:37.895Z,987.70
2018-12-07T15:59:37.847Z,987.73
2018-12-07T16:00:37.914Z,987.73
2018-12-07T16:01:37.967Z,987.76
2018-12-07T16:02:37.991Z,987.76
2018-12-07T16:03:38.082Z,987.74
2018-12-07T16:04:38.233Z,987.73
2018-12-07T16:05:38.121Z,987.69
2018-12-07T16:06:38.181Z,987.68
2018-12-07T16:07:38.187Z,987.70
2018-12-07T16:08:38.226Z,987.67
2018-12-07T16:09:38.252Z,987.69
2018-12-07T16:10:38.282Z,987.68
2018-12-07T16:11:38.285Z,987.62
2018-12-07T16:12:38.368Z,987.65
2018-12-07T16:13:38.374Z,987.64
2018-12-07T16:14:38.444Z,987.60
2018-12-07T16:15:38.480Z,987.64
2018-12-07T16:16:38.676Z,987.61
2018-12-07T16:17:38.489Z,987.58
2018-12-07T16:18:38.527Z,987.52
2018-12-07T16:19:38.577Z,987.54
2018-12-07T16:20:38.620Z,987.44
2018-12-07T16:21:38.670Z,987.45
2018-12-07T16:22:38.819Z,987.39
2018-12-07T16:23:38.799Z,987.37
2018-12-07T16:24:38.801Z,987.35
2018-12-07T16:25:38.975Z,987.35
2018-12-07T16:26:39.005Z,987.34
2018-12-07T16:27:38.889Z,987.37
2018-12-07T16:28:38.917Z,987.34
2018-12-07T16:29:38.949Z,987.38
2018-12-07T16:30:38.989Z,987.38
2018-12-07T16:31:39.051Z,987.35
2018-12-07T16:32:39.274Z,987.29
2018-12-07T16:33:39.216Z,987.34
2018-12-07T16:34:39.224Z,987.27
2018-12-07T16:35:39.252Z,987.26
2018-12-07T16:36:39.181Z,987.25
2018-12-07T16:37:39.252Z,987.21
2018-12-07T16:38:39.253Z,987.17
2018-12-07T16:39:39.384Z,987.13
2018-12-07T16:40:39.414Z,987.07
2018-12-07T16:41:39.415Z,987.08
2018-12-07T16:42:39.396Z,987.03
2018-12-07T16:43:39.713Z,987.06
2018-12-07T16:44:39.669Z,987.06
2018-12-07T16:45:39.649Z,987.06
2018-12-07T16:46:39.669Z,987.08
2018-12-07T16:47:39.787Z,987.11
2018-12-07T16:48:39.617Z,987.13
2018-12-07T16:49:39.671Z,987.10
2018-12-07T16:50:39.786Z,987.16
2018-12-07T16:51:39.862Z,987.13
2018-12-07T16:52:39.865Z,987.15
2018-12-07T16:53:39.798Z,987.11
2018-12-07T16:54:39.838Z,987.13
2018-12-07T16:55:40.061Z,987.04
2018-12-07T16:56:39.971Z,987.09
2018-12-07T16:57:39.958Z,987.03
2018-12-07T16:58:39.986Z,987.00
2018-12-07T16:59:40.019Z,986.98
2018-12-07T17:00:40.300Z,986.97
2018-12-07T17:01:40.291Z,986.97
2018-12-07T17:02:40.386Z,986.97
2018-12-07T17:03:40.399Z,986.95
2018-12-07T17:04:40.248Z,986.95
2018-12-07T17:05:40.248Z,986.88
2018-12-07T17:06:40.335Z,986.88
2018-12-07T17:07:40.491Z,986.83
2018-12-07T17:08:40.449Z,986.82
2018-12-07T17:09:40.426Z,986.80
2018-12-07T17:10:40.450Z,986.84
2018-12-07T17:11:40.508Z,986.81
2018-12-07T17:12:40.509Z,986.81
2018-12-07T17:13:40.717Z,986.80
2018-12-07T17:14:40.715Z,986.81
2018-12-07T17:15:40.763Z,986.80
2018-12-07T17:16:40.712Z,986.80
2018-12-07T17:17:40.723Z,986.76
2018-12-07T17:18:40.801Z,986.73
2018-12-07T17:19:40.901Z,986.69
2018-12-07T17:20:40.941Z,986.67
2018-12-07T17:21:40.887Z,986.70
2018-12-07T17:22:40.942Z,986.73
2018-12-07T17:23:41.106Z,986.75
2018-12-07T17:24:41.049Z,986.75
2018-12-07T17:25:40.993Z,986.75
2018-12-07T17:26:41.118Z,986.77
2018-12-07T17:27:41.202Z,986.78
2018-12-07T17:28:41.115Z,986.79
2018-12-07T17:29:41.163Z,986.75
2018-12-07T17:30:41.145Z,986.79
2018-12-07T17:31:41.908Z,986.68
2018-12-07T17:32:41.359Z,986.65
2018-12-07T17:33:41.337Z,986.59
2018-12-07T17:34:41.472Z,986.58
2018-12-07T17:35:42.520Z,986.59
2018-12-07T17:36:41.365Z,986.55
2018-12-07T17:37:41.536Z,986.48
2018-12-07T17:38:41.677Z,986.48
2018-12-07T17:39:41.652Z,986.47
2018-12-07T17:40:41.664Z,986.47
2018-12-07T17:41:41.550Z,986.52
2018-12-07T17:42:41.655Z,986.53
2018-12-07T17:43:41.624Z,986.51
2018-12-07T17:44:41.831Z,986.49
2018-12-07T17:45:41.732Z,986.46
2018-12-07T17:46:41.804Z,986.48
2018-12-07T17:47:41.990Z,986.48
2018-12-07T17:48:41.968Z,986.48
2018-12-07T17:49:41.929Z,986.49
2018-12-07T17:50:41.873Z,986.47
2018-12-07T17:51:41.942Z,986.44
2018-12-07T17:52:42.017Z,986.44
2018-12-07T17:53:42.166Z,986.47
2018-12-07T17:54:42.126Z,986.43
2018-12-07T17:55:42.211Z,986.41
2018-12-07T17:56:42.132Z,986.43
2018-12-07T17:57:42.147Z,986.38
2018-12-07T17:58:42.160Z,986.40
2018-12-07T17:59:42.330Z,986.39
2018-12-07T18:00:42.260Z,986.37
2018-12-07T18:01:42.272Z,986.35
2018-12-07T18:02:42.316Z,986.38
2018-12-07T18:03:42.344Z,986.38
2018-12-07T18:04:42.381Z,986.37
2018-12-07T18:05:42.554Z,986.36
2018-12-07T18:06:42.559Z,986.29
2018-12-07T18:07:42.519Z,986.28
2018-12-07T18:08:42.529Z,986.28
2018-12-07T18:09:42.824Z,986.26
2018-12-07T18:10:42.863Z,986.30
2018-12-07T18:11:42.640Z,986.31
2018-12-07T18:12:42.672Z,986.32
2018-12-07T18:13:42.709Z,986.32
2018-12-07T18:14:42.806Z,986.32
2018-12-07T18:15:43.029Z,986.30
2018-12-07T18:16:42.839Z,986.31
2018-12-07T18:17:42.996Z,986.25
2018-12-07T18:18:42.890Z,986.21
2018-12-07T18:19:43.071Z,986.21
2018-12-07T18:20:43.153Z,986.18
2018-12-07T18:21:43.141Z,986.17
2018-12-07T18:22:43.035Z,986.19
2018-12-07T18:23:43.422Z,986.19
2018-12-07T18:24:43.116Z,986.24
2018-12-07T18:25:43.298Z,986.21
2018-12-07T18:26:43.290Z,986.14
2018-12-07T18:27:43.230Z,986.15
2018-12-07T18:28:43.304Z,986.12
2018-12-07T18:29:43.327Z,986.12
2018-12-07T18:30:43.329Z,986.10
2018-12-07T18:31:43.632Z,986.13
2018-12-07T18:32:43.473Z,986.12
2018-12-07T18:33:43.696Z,986.12
2018-12-07T18:34:43.476Z,986.11
2018-12-07T18:35:43.829Z,986.08
2018-12-07T18:36:43.565Z,986.08
2018-12-07T18:37:43.628Z,986.10
2018-12-07T18:38:43.865Z,986.14
2018-12-07T18:39:43.827Z,986.07
2018-12-07T18:40:43.689Z,986.14
2018-12-07T18:41:43.965Z,986.10
2018-12-07T18:42:43.843Z,986.09
2018-12-07T18:43:44.069Z,986.08
2018-12-07T18:44:43.839Z,986.08
2018-12-07T18:45:44.067Z,986.06
2018-12-07T18:46:43.906Z,986.03
2018-12-07T18:47:43.947Z,986.02
2018-12-07T18:48:44.060Z,986.03
2018-12-07T18:49:44.047Z,986.01
2018-12-07T18:50:44.149Z,985.96
2018-12-07T18:51:44.260Z,985.91
2018-12-07T18:52:44.125Z,985.86
2018-12-07T18:53:44.306Z,985.83
2018-12-07T18:54:44.424Z,985.85
2018-12-07T18:55:44.316Z,985.85
2018-12-07T18:56:44.364Z,985.80
2018-12-07T18:57:44.459Z,985.78
2018-12-07T18:58:44.454Z,985.80
2018-12-07T18:59:44.611Z,985.79
2018-12-07T19:00:44.430Z,985.74
2018-12-07T19:01:44.578Z,985.74
2018-12-07T19:02:44.558Z,985.74
2018-12-07T19:03:44.780Z,985.72
2018-12-07T19:04:44.842Z,985.70
2018-12-07T19:05:44.703Z,985.68
2018-12-07T19:06:44.632Z,985.64
2018-12-07T19:07:44.876Z,985.65
2018-12-07T19:08:44.706Z,985.59
2018-12-07T19:09:44.789Z,985.62
2018-12-07T19:10:45.056Z,985.59
2018-12-07T19:11:44.904Z,985.58
2018-12-07T19:12:44.887Z,985.57
2018-12-07T19:13:44.932Z,985.56
2018-12-07T19:14:45.012Z,985.51
2018-12-07T19:15:45.171Z,985.50
2018-12-07T19:16:45.018Z,985.48
2018-12-07T19:17:45.072Z,985.47
2018-12-07T19:18:45.147Z,985.46
2018-12-07T19:19:45.109Z,985.46
2018-12-07T19:20:45.145Z,985.45
2018-12-07T19:21:45.304Z,985.41
2018-12-07T19:22:45.350Z,985.41
2018-12-07T19:23:45.589Z,985.42
2018-12-07T19:24:45.318Z,985.42
2018-12-07T19:25:45.525Z,985.44
2018-12-07T19:26:45.408Z,985.44
2018-12-07T19:27:45.682Z,985.41
2018-12-07T19:28:45.501Z,985.41
2018-12-07T19:29:45.574Z,985.39
2018-12-07T19:30:45.568Z,985.37
2018-12-07T19:31:45.608Z,985.37
2018-12-07T19:32:45.733Z,985.39
2018-12-07T19:33:45.617Z,985.35
2018-12-07T19:34:45.672Z,985.36
2018-12-07T19:35:46.068Z,985.34
2018-12-07T19:36:45.939Z,985.39
2018-12-07T19:37:45.795Z,985.36
2018-12-07T19:38:45.820Z,985.33
2018-12-07T19:39:46.108Z,985.32
2018-12-07T19:40:46.110Z,985.34
2018-12-07T19:41:46.024Z,985.32
2018-12-07T19:42:46.320Z,985.30
2018-12-07T19:43:45.975Z,985.28
2018-12-07T19:44:46.029Z,985.28
2018-12-07T19:45:46.261Z,985.26
2018-12-07T19:46:46.119Z,985.27
2018-12-07T19:47:46.374Z,985.22
2018-12-07T19:48:46.180Z,985.19
2018-12-07T19:49:46.386Z,985.15
2018-12-07T19:50:46.264Z,985.15
2018-12-07T19:51:46.274Z,985.14
2018-12-07T19:52:46.302Z,985.15
2018-12-07T19:53:46.340Z,985.15
2018-12-07T19:54:46.379Z,985.18
2018-12-07T19:55:46.416Z,985.17
2018-12-07T19:56:46.453Z,985.19
2018-12-07T19:57:46.709Z,985.14
2018-12-07T19:58:46.738Z,985.12
2018-12-07T19:59:46.560Z,985.11
2018-12-07T20:00:46.605Z,985.11
2018-12-07T20:01:46.673Z,985.18
2018-12-07T20:02:46.804Z,985.15
2018-12-07T20:03:46.739Z,985.13
2018-12-07T20:04:46.742Z,985.18
2018-12-07T20:05:47.033Z,985.13
2018-12-07T20:06:46.866Z,985.13
2018-12-07T20:07:46.852Z,985.12
2018-12-07T20:08:46.885Z,985.10
2018-12-07T20:09:46.923Z,985.10
2018-12-07T20:10:47.197Z,985.07
2018-12-07T20:11:46.999Z,985.07
2018-12-07T20:12:47.074Z,985.02
2018-12-07T20:13:47.067Z,985.05
2018-12-07T20:14:47.105Z,985.00
2018-12-07T20:15:47.201Z,984.98
2018-12-07T20:16:47.178Z,985.00
2018-12-07T20:17:47.302Z,984.98
2018-12-07T20:18:47.248Z,985.01
2018-12-07T20:19:47.575Z,985.00
2018-12-07T20:20:47.322Z,985.04
2018-12-07T20:21:47.657Z,984.98
2018-12-07T20:22:47.728Z,984.99
2018-12-07T20:23:47.430Z,984.95
2018-12-07T20:24:47.506Z,984.97
2018-12-07T20:25:47.810Z,984.94
2018-12-07T20:26:47.601Z,984.95
2018-12-07T20:27:47.642Z,984.93
2018-12-07T20:28:47.965Z,984.91
2018-12-07T20:29:47.651Z,984.91
2018-12-07T20:30:47.688Z,984.88
2018-12-07T20:31:47.818Z,984.86
2018-12-07T20:32:47.760Z,984.86
2018-12-07T20:33:47.865Z,984.84
2018-12-07T20:34:47.864Z,984.80
2018-12-07T20:35:47.867Z,984.79
2018-12-07T20:36:48.068Z,984.77
2018-12-07T20:37:48.070Z,984.72
2018-12-07T20:38:48.147Z,984.70
2018-12-07T20:39:48.099Z,984.71
2018-12-07T20:40:48.050Z,984.68
2018-12-07T20:41:48.943Z,984.65
2018-12-07T20:42:48.265Z,984.66
2018-12-07T20:43:48.161Z,984.65
2018-12-07T20:44:48.195Z,984.66
2018-12-07T20:45:48.232Z,984.68
2018-12-07T20:46:48.300Z,984.63
2018-12-07T20:47:48.336Z,984.63
2018-12-07T20:48:48.389Z,984.62
2018-12-07T20:49:48.375Z,984.60
2018-12-07T20:50:48.414Z,984.64
2018-12-07T20:51:48.454Z,984.60
2018-12-07T20:52:48.530Z,984.60
2018-12-07T20:53:48.525Z,984.62
2018-12-07T20:54:48.872Z,984.55
2018-12-07T20:55:48.591Z,984.56
2018-12-07T20:56:48.638Z,984.53
2018-12-07T20:57:48.890Z,984.51
2018-12-07T20:58:48.767Z,984.45
2018-12-07T20:59:48.895Z,984.44
2018-12-07T21:00:48.777Z,984.46
2018-12-07T21:01:51.824Z,984.43
2018-12-07T21:02:48.930Z,984.47
2018-12-07T21:03:48.884Z,984.46
2018-12-07T21:04:49.109Z,984.46
2018-12-07T21:05:49.210Z,984.45
2018-12-07T21:06:49.087Z,984.43
2018-12-07T21:07:49.268Z,984.39
2018-12-07T21:08:49.115Z,984.40
2018-12-07T21:09:49.113Z,984.42
2018-12-07T21:10:49.282Z,984.40
2018-12-07T21:11:49.413Z,984.35
2018-12-07T21:12:49.211Z,984.40
2018-12-07T21:13:49.249Z,984.37
2018-12-07T21:14:49.370Z,984.40
2018-12-07T21:15:49.332Z,984.38
2018-12-07T21:16:49.649Z,984.37
2018-12-07T21:17:49.487Z,984.35
2018-12-07T21:18:49.427Z,984.40
2018-12-07T21:19:49.797Z,984.37
2018-12-07T21:20:49.663Z,984.38
2018-12-07T21:21:49.660Z,984.40
2018-12-07T21:22:49.863Z,984.41
2018-12-07T21:23:49.775Z,984.36
2018-12-07T21:24:49.722Z,984.36
2018-12-07T21:25:49.684Z,984.37
2018-12-07T21:26:49.740Z,984.35
2018-12-07T21:27:49.753Z,984.40
2018-12-07T21:28:49.868Z,984.38
2018-12-07T21:29:49.946Z,984.35
2018-12-07T21:30:50.126Z,984.35
2018-12-07T21:31:50.238Z,984.36
2018-12-07T21:32:49.974Z,984.38
2018-12-07T21:33:50.008Z,984.35
2018-12-07T21:34:50.010Z,984.35
2018-12-07T21:35:50.052Z,984.38
2018-12-07T21:36:50.467Z,984.34
2018-12-07T21:37:50.119Z,984.37
2018-12-07T21:38:50.307Z,984.37
2018-12-07T21:39:50.360Z,984.35
2018-12-07T21:40:50.226Z,984.34
2018-12-07T21:41:50.344Z,984.34
2018-12-07T21:42:50.522Z,984.33
2018-12-07T21:43:50.437Z,984.32
2018-12-07T21:44:50.466Z,984.27
2018-12-07T21:45:50.633Z,984.26
2018-12-07T21:46:50.497Z,984.22
2018-12-07T21:47:50.630Z,984.21
2018-12-07T21:48:50.522Z,984.18
2018-12-07T21:49:50.556Z,984.18
2018-12-07T21:50:50.615Z,984.15
2018-12-07T21:51:50.782Z,984.12
2018-12-07T21:52:50.745Z,984.11
2018-12-07T21:53:51.047Z,984.08
2018-12-07T21:54:50.937Z,984.07